Terminal Aerodrome Forecast
Issued by NWS Tampa Bay Area, FL

Home | Current Version | Previous Version | Text Only | Print | Product List | Glossary On
Versions: 1 2 3 4 5 6 7 8 9 10 11 12 13
966
FTUS42 KTBW 302337
TAFSRQ
TAF
KSRQ 302337Z 3100/3124 30007KT P6SM SCT150
     FM310200 VRB04KT P6SM SCT050 SCT150
     FM311500 25006KT P6SM FEW070 SCT150
     FM311800 27008KT P6SM VCTS FEW060CB SCT100
     FM312000 28010KT P6SM FEW060 SCT250=

USA.gov is the U.S. government's official web portal to all federal, state and local government web resources and services.